sensor_id;sensor_type;location;lat;lon;timestamp;P1;durP1;ratioP1;P2;durP2;ratioP2
55728;SDS011;41633;39.720;2.910;2022-09-09T00:00:57;9.93;;;2.33;;
55728;SDS011;41633;39.720;2.910;2022-09-09T00:03:26;9.82;;;2.20;;
55728;SDS011;41633;39.720;2.910;2022-09-09T00:06:08;10.18;;;2.45;;
55728;SDS011;41633;39.720;2.910;2022-09-09T00:08:43;9.00;;;2.30;;
55728;SDS011;41633;39.720;2.910;2022-09-09T00:11:12;8.68;;;2.10;;
55728;SDS011;41633;39.720;2.910;2022-09-09T00:13:42;9.32;;;2.17;;
55728;SDS011;41633;39.720;2.910;2022-09-09T00:16:21;10.20;;;2.40;;
55728;SDS011;41633;39.720;2.910;2022-09-09T00:21:37;10.30;;;2.25;;
55728;SDS011;41633;39.720;2.910;2022-09-09T00:26:47;9.73;;;2.15;;
55728;SDS011;41633;39.720;2.910;2022-09-09T00:29:17;7.32;;;1.90;;
55728;SDS011;41633;39.720;2.910;2022-09-09T00:31:47;11.25;;;1.95;;
55728;SDS011;41633;39.720;2.910;2022-09-09T00:34:14;8.25;;;2.10;;
55728;SDS011;41633;39.720;2.910;2022-09-09T00:36:42;10.98;;;2.58;;
55728;SDS011;41633;39.720;2.910;2022-09-09T00:39:52;8.82;;;2.00;;
55728;SDS011;41633;39.720;2.910;2022-09-09T00:42:22;7.85;;;1.58;;
55728;SDS011;41633;39.720;2.910;2022-09-09T00:52:40;9.35;;;2.30;;
55728;SDS011;41633;39.720;2.910;2022-09-09T00:57:35;9.10;;;2.03;;
55728;SDS011;41633;39.720;2.910;2022-09-09T01:00:21;8.48;;;2.20;;
55728;SDS011;41633;39.720;2.910;2022-09-09T01:03:33;9.95;;;2.38;;
55728;SDS011;41633;39.720;2.910;2022-09-09T01:05:36;10.10;;;2.25;;
55728;SDS011;41633;39.720;2.910;2022-09-09T01:08:05;11.20;;;2.20;;
55728;SDS011;41633;39.720;2.910;2022-09-09T01:10:44;7.82;;;2.10;;
55728;SDS011;41633;39.720;2.910;2022-09-09T01:13:15;8.55;;;2.00;;
55728;SDS011;41633;39.720;2.910;2022-09-09T01:15:42;7.97;;;1.95;;
55728;SDS011;41633;39.720;2.910;2022-09-09T01:18:11;10.95;;;2.38;;
55728;SDS011;41633;39.720;2.910;2022-09-09T01:20:43;8.70;;;1.90;;
55728;SDS011;41633;39.720;2.910;2022-09-09T01:23:35;9.30;;;2.30;;
55728;SDS011;41633;39.720;2.910;2022-09-09T01:26:17;10.82;;;2.35;;
55728;SDS011;41633;39.720;2.910;2022-09-09T01:28:45;8.60;;;2.30;;
55728;SDS011;41633;39.720;2.910;2022-09-09T01:31:14;7.63;;;1.70;;
55728;SDS011;41633;39.720;2.910;2022-09-09T01:33:41;8.13;;;2.05;;
55728;SDS011;41633;39.720;2.910;2022-09-09T01:36:12;11.60;;;2.40;;
55728;SDS011;41633;39.720;2.910;2022-09-09T01:38:39;9.07;;;2.08;;
55728;SDS011;41633;39.720;2.910;2022-09-09T01:41:05;7.90;;;2.13;;
55728;SDS011;41633;39.720;2.910;2022-09-09T01:43:31;10.60;;;2.20;;
55728;SDS011;41633;39.720;2.910;2022-09-09T01:45:59;7.28;;;2.00;;
55728;SDS011;41633;39.720;2.910;2022-09-09T01:48:26;8.68;;;1.95;;
55728;SDS011;41633;39.720;2.910;2022-09-09T01:50:53;8.57;;;2.20;;
55728;SDS011;41633;39.720;2.910;2022-09-09T01:53:19;9.55;;;2.20;;
55728;SDS011;41633;39.720;2.910;2022-09-09T01:56:02;6.90;;;1.85;;
55728;SDS011;41633;39.720;2.910;2022-09-09T02:01:02;8.43;;;1.95;;
55728;SDS011;41633;39.720;2.910;2022-09-09T02:03:32;9.45;;;2.28;;
55728;SDS011;41633;39.720;2.910;2022-09-09T02:08:49;9.98;;;2.17;;
55728;SDS011;41633;39.720;2.910;2022-09-09T02:11:17;9.52;;;1.85;;
55728;SDS011;41633;39.720;2.910;2022-09-09T02:13:44;8.57;;;2.35;;
55728;SDS011;41633;39.720;2.910;2022-09-09T02:18:42;8.82;;;2.13;;
55728;SDS011;41633;39.720;2.910;2022-09-09T02:21:09;8.25;;;2.10;;
55728;SDS011;41633;39.720;2.910;2022-09-09T02:23:37;7.18;;;2.03;;
55728;SDS011;41633;39.720;2.910;2022-09-09T02:26:04;8.27;;;2.25;;
55728;SDS011;41633;39.720;2.910;2022-09-09T02:28:33;11.15;;;2.33;;
55728;SDS011;41633;39.720;2.910;2022-09-09T02:31:00;12.02;;;2.42;;
55728;SDS011;41633;39.720;2.910;2022-09-09T02:33:28;8.65;;;2.20;;
55728;SDS011;41633;39.720;2.910;2022-09-09T02:35:55;9.50;;;2.17;;
55728;SDS011;41633;39.720;2.910;2022-09-09T02:38:26;10.60;;;2.30;;
55728;SDS011;41633;39.720;2.910;2022-09-09T02:40:54;11.02;;;2.03;;
55728;SDS011;41633;39.720;2.910;2022-09-09T02:43:20;9.82;;;2.40;;
55728;SDS011;41633;39.720;2.910;2022-09-09T02:46:03;10.50;;;2.30;;
55728;SDS011;41633;39.720;2.910;2022-09-09T02:48:36;9.10;;;2.20;;
55728;SDS011;41633;39.720;2.910;2022-09-09T02:56:05;9.90;;;2.30;;
55728;SDS011;41633;39.720;2.910;2022-09-09T02:58:34;8.68;;;2.10;;
55728;SDS011;41633;39.720;2.910;2022-09-09T03:01:00;8.45;;;2.28;;
55728;SDS011;41633;39.720;2.910;2022-09-09T03:03:27;8.20;;;2.17;;
55728;SDS011;41633;39.720;2.910;2022-09-09T03:05:55;7.18;;;2.22;;
55728;SDS011;41633;39.720;2.910;2022-09-09T03:08:22;10.15;;;2.65;;
55728;SDS011;41633;39.720;2.910;2022-09-09T03:10:48;11.23;;;2.25;;
55728;SDS011;41633;39.720;2.910;2022-09-09T03:13:14;9.23;;;2.40;;
55728;SDS011;41633;39.720;2.910;2022-09-09T03:15:41;8.70;;;2.40;;
55728;SDS011;41633;39.720;2.910;2022-09-09T03:18:07;9.75;;;2.60;;
55728;SDS011;41633;39.720;2.910;2022-09-09T03:20:33;11.57;;;2.60;;
55728;SDS011;41633;39.720;2.910;2022-09-09T03:22:59;10.55;;;2.50;;
55728;SDS011;41633;39.720;2.910;2022-09-09T03:25:26;9.88;;;2.55;;
55728;SDS011;41633;39.720;2.910;2022-09-09T03:27:54;9.65;;;2.60;;
55728;SDS011;41633;39.720;2.910;2022-09-09T03:30:21;10.45;;;2.97;;
55728;SDS011;41633;39.720;2.910;2022-09-09T03:32:47;10.98;;;2.88;;
55728;SDS011;41633;39.720;2.910;2022-09-09T03:35:14;9.77;;;2.55;;
55728;SDS011;41633;39.720;2.910;2022-09-09T03:37:40;9.95;;;2.50;;
55728;SDS011;41633;39.720;2.910;2022-09-09T03:40:07;10.60;;;2.78;;
55728;SDS011;41633;39.720;2.910;2022-09-09T03:42:35;12.30;;;2.60;;
55728;SDS011;41633;39.720;2.910;2022-09-09T03:45:02;8.80;;;2.60;;
55728;SDS011;41633;39.720;2.910;2022-09-09T03:47:28;10.00;;;2.88;;
55728;SDS011;41633;39.720;2.910;2022-09-09T03:49:55;13.05;;;2.83;;
55728;SDS011;41633;39.720;2.910;2022-09-09T03:52:21;12.93;;;2.72;;
55728;SDS011;41633;39.720;2.910;2022-09-09T03:54:50;10.23;;;2.63;;
55728;SDS011;41633;39.720;2.910;2022-09-09T03:57:16;13.75;;;3.08;;
55728;SDS011;41633;39.720;2.910;2022-09-09T03:59:42;11.18;;;2.72;;
55728;SDS011;41633;39.720;2.910;2022-09-09T04:02:09;9.00;;;2.63;;
55728;SDS011;41633;39.720;2.910;2022-09-09T04:04:35;8.65;;;2.55;;
55728;SDS011;41633;39.720;2.910;2022-09-09T04:07:01;10.75;;;2.83;;
55728;SDS011;41633;39.720;2.910;2022-09-09T04:09:27;10.52;;;2.95;;
55728;SDS011;41633;39.720;2.910;2022-09-09T04:11:53;11.20;;;3.22;;
55728;SDS011;41633;39.720;2.910;2022-09-09T04:14:20;11.07;;;2.92;;
55728;SDS011;41633;39.720;2.910;2022-09-09T04:16:47;12.13;;;3.38;;
55728;SDS011;41633;39.720;2.910;2022-09-09T04:19:13;11.23;;;3.00;;
55728;SDS011;41633;39.720;2.910;2022-09-09T04:21:42;11.40;;;2.58;;
55728;SDS011;41633;39.720;2.910;2022-09-09T04:24:08;13.57;;;3.03;;
55728;SDS011;41633;39.720;2.910;2022-09-09T04:26:35;9.57;;;3.00;;
55728;SDS011;41633;39.720;2.910;2022-09-09T04:29:02;10.52;;;2.88;;
55728;SDS011;41633;39.720;2.910;2022-09-09T04:31:28;8.77;;;3.13;;
55728;SDS011;41633;39.720;2.910;2022-09-09T04:33:54;12.20;;;3.20;;
55728;SDS011;41633;39.720;2.910;2022-09-09T04:36:20;12.02;;;2.90;;
55728;SDS011;41633;39.720;2.910;2022-09-09T04:38:46;10.90;;;3.05;;
55728;SDS011;41633;39.720;2.910;2022-09-09T04:41:14;9.63;;;2.60;;
55728;SDS011;41633;39.720;2.910;2022-09-09T04:43:41;11.93;;;2.88;;
55728;SDS011;41633;39.720;2.910;2022-09-09T04:46:07;9.18;;;2.53;;
55728;SDS011;41633;39.720;2.910;2022-09-09T04:48:34;13.55;;;2.70;;
55728;SDS011;41633;39.720;2.910;2022-09-09T04:51:00;9.32;;;2.92;;
55728;SDS011;41633;39.720;2.910;2022-09-09T04:53:27;10.73;;;2.75;;
55728;SDS011;41633;39.720;2.910;2022-09-09T04:56:00;11.25;;;3.08;;
55728;SDS011;41633;39.720;2.910;2022-09-09T04:58:27;10.32;;;3.10;;
55728;SDS011;41633;39.720;2.910;2022-09-09T05:00:53;10.50;;;3.05;;
55728;SDS011;41633;39.720;2.910;2022-09-09T05:03:19;10.57;;;2.78;;
55728;SDS011;41633;39.720;2.910;2022-09-09T05:05:45;10.90;;;3.10;;
55728;SDS011;41633;39.720;2.910;2022-09-09T05:08:12;11.25;;;3.05;;
55728;SDS011;41633;39.720;2.910;2022-09-09T05:10:38;10.95;;;2.58;;
55728;SDS011;41633;39.720;2.910;2022-09-09T05:13:06;10.38;;;2.80;;
55728;SDS011;41633;39.720;2.910;2022-09-09T05:15:33;9.80;;;3.00;;
55728;SDS011;41633;39.720;2.910;2022-09-09T05:18:00;11.45;;;3.13;;
55728;SDS011;41633;39.720;2.910;2022-09-09T05:20:27;11.82;;;3.42;;
55728;SDS011;41633;39.720;2.910;2022-09-09T05:22:54;10.85;;;3.15;;
55728;SDS011;41633;39.720;2.910;2022-09-09T05:25:20;13.98;;;3.53;;
55728;SDS011;41633;39.720;2.910;2022-09-09T05:27:47;13.02;;;3.72;;
55728;SDS011;41633;39.720;2.910;2022-09-09T05:30:14;10.82;;;3.65;;
55728;SDS011;41633;39.720;2.910;2022-09-09T05:32:41;11.05;;;3.55;;
55728;SDS011;41633;39.720;2.910;2022-09-09T05:35:07;10.80;;;3.30;;
55728;SDS011;41633;39.720;2.910;2022-09-09T05:37:33;11.07;;;3.50;;
55728;SDS011;41633;39.720;2.910;2022-09-09T05:40:00;12.85;;;3.35;;
55728;SDS011;41633;39.720;2.910;2022-09-09T05:42:29;12.10;;;3.70;;
55728;SDS011;41633;39.720;2.910;2022-09-09T05:44:55;13.02;;;3.67;;
55728;SDS011;41633;39.720;2.910;2022-09-09T05:47:23;16.55;;;3.83;;
55728;SDS011;41633;39.720;2.910;2022-09-09T05:49:49;12.48;;;3.80;;
55728;SDS011;41633;39.720;2.910;2022-09-09T05:52:15;10.63;;;3.42;;
55728;SDS011;41633;39.720;2.910;2022-09-09T05:54:41;10.38;;;2.90;;
55728;SDS011;41633;39.720;2.910;2022-09-09T05:57:08;12.18;;;2.80;;
55728;SDS011;41633;39.720;2.910;2022-09-09T05:59:34;14.65;;;2.90;;
55728;SDS011;41633;39.720;2.910;2022-09-09T06:02:00;12.77;;;2.83;;
55728;SDS011;41633;39.720;2.910;2022-09-09T06:04:26;12.32;;;3.50;;
55728;SDS011;41633;39.720;2.910;2022-09-09T06:06:52;11.20;;;2.78;;
55728;SDS011;41633;39.720;2.910;2022-09-09T06:09:18;11.30;;;3.25;;
55728;SDS011;41633;39.720;2.910;2022-09-09T06:11:45;10.07;;;3.92;;
55728;SDS011;41633;39.720;2.910;2022-09-09T06:14:11;12.63;;;3.97;;
55728;SDS011;41633;39.720;2.910;2022-09-09T06:16:37;17.15;;;3.40;;
55728;SDS011;41633;39.720;2.910;2022-09-09T06:19:03;13.32;;;3.75;;
55728;SDS011;41633;39.720;2.910;2022-09-09T06:21:30;11.18;;;3.63;;
55728;SDS011;41633;39.720;2.910;2022-09-09T06:23:57;10.18;;;3.05;;
55728;SDS011;41633;39.720;2.910;2022-09-09T06:26:28;10.38;;;3.10;;
55728;SDS011;41633;39.720;2.910;2022-09-09T06:28:55;13.57;;;2.70;;
55728;SDS011;41633;39.720;2.910;2022-09-09T06:31:24;10.25;;;2.75;;
55728;SDS011;41633;39.720;2.910;2022-09-09T06:33:51;10.68;;;3.60;;
55728;SDS011;41633;39.720;2.910;2022-09-09T06:36:18;11.85;;;3.60;;
55728;SDS011;41633;39.720;2.910;2022-09-09T06:38:45;14.90;;;3.90;;
55728;SDS011;41633;39.720;2.910;2022-09-09T06:41:11;11.63;;;4.13;;
55728;SDS011;41633;39.720;2.910;2022-09-09T06:43:38;12.10;;;4.10;;
55728;SDS011;41633;39.720;2.910;2022-09-09T06:46:09;11.98;;;4.90;;
55728;SDS011;41633;39.720;2.910;2022-09-09T06:48:35;12.77;;;4.35;;
55728;SDS011;41633;39.720;2.910;2022-09-09T06:51:09;15.68;;;4.55;;
55728;SDS011;41633;39.720;2.910;2022-09-09T06:53:39;17.60;;;5.97;;
55728;SDS011;41633;39.720;2.910;2022-09-09T06:56:25;15.95;;;5.35;;
55728;SDS011;41633;39.720;2.910;2022-09-09T06:58:53;16.13;;;6.22;;
55728;SDS011;41633;39.720;2.910;2022-09-09T07:01:23;26.98;;;6.30;;
55728;SDS011;41633;39.720;2.910;2022-09-09T07:03:50;20.08;;;6.50;;
55728;SDS011;41633;39.720;2.910;2022-09-09T07:06:20;14.82;;;5.43;;
55728;SDS011;41633;39.720;2.910;2022-09-09T07:08:52;18.58;;;5.40;;
55728;SDS011;41633;39.720;2.910;2022-09-09T07:11:19;14.18;;;4.25;;
55728;SDS011;41633;39.720;2.910;2022-09-09T07:13:46;11.93;;;3.75;;
55728;SDS011;41633;39.720;2.910;2022-09-09T07:16:13;16.35;;;4.25;;
55728;SDS011;41633;39.720;2.910;2022-09-09T07:18:40;14.98;;;5.00;;
55728;SDS011;41633;39.720;2.910;2022-09-09T07:21:07;13.07;;;4.55;;
55728;SDS011;41633;39.720;2.910;2022-09-09T07:23:34;17.23;;;4.85;;
55728;SDS011;41633;39.720;2.910;2022-09-09T07:26:01;18.23;;;5.68;;
55728;SDS011;41633;39.720;2.910;2022-09-09T07:28:28;22.38;;;5.35;;
55728;SDS011;41633;39.720;2.910;2022-09-09T07:30:56;16.35;;;4.88;;
55728;SDS011;41633;39.720;2.910;2022-09-09T07:33:23;19.27;;;5.57;;
55728;SDS011;41633;39.720;2.910;2022-09-09T07:35:50;16.45;;;4.70;;
55728;SDS011;41633;39.720;2.910;2022-09-09T07:38:16;17.15;;;4.90;;
55728;SDS011;41633;39.720;2.910;2022-09-09T07:40:42;13.80;;;3.97;;
55728;SDS011;41633;39.720;2.910;2022-09-09T07:43:09;12.88;;;4.43;;
55728;SDS011;41633;39.720;2.910;2022-09-09T07:45:35;12.43;;;3.30;;
55728;SDS011;41633;39.720;2.910;2022-09-09T07:48:02;13.32;;;4.03;;
55728;SDS011;41633;39.720;2.910;2022-09-09T07:50:28;11.38;;;3.20;;
55728;SDS011;41633;39.720;2.910;2022-09-09T07:52:54;11.48;;;3.90;;
55728;SDS011;41633;39.720;2.910;2022-09-09T07:55:21;9.98;;;2.80;;
55728;SDS011;41633;39.720;2.910;2022-09-09T07:57:50;10.77;;;2.90;;
55728;SDS011;41633;39.720;2.910;2022-09-09T08:00:16;9.38;;;2.30;;
55728;SDS011;41633;39.720;2.910;2022-09-09T08:02:44;13.10;;;2.63;;
55728;SDS011;41633;39.720;2.910;2022-09-09T08:05:11;9.93;;;2.80;;
55728;SDS011;41633;39.720;2.910;2022-09-09T08:07:38;9.45;;;2.53;;
55728;SDS011;41633;39.720;2.910;2022-09-09T08:10:04;9.98;;;2.90;;
55728;SDS011;41633;39.720;2.910;2022-09-09T08:12:31;9.73;;;2.53;;
55728;SDS011;41633;39.720;2.910;2022-09-09T08:14:57;7.88;;;2.30;;
55728;SDS011;41633;39.720;2.910;2022-09-09T08:17:23;8.65;;;2.30;;
55728;SDS011;41633;39.720;2.910;2022-09-09T08:19:49;11.00;;;2.65;;
55728;SDS011;41633;39.720;2.910;2022-09-09T08:22:15;8.60;;;1.90;;
55728;SDS011;41633;39.720;2.910;2022-09-09T08:24:41;8.85;;;2.50;;
55728;SDS011;41633;39.720;2.910;2022-09-09T08:27:08;9.68;;;2.28;;
55728;SDS011;41633;39.720;2.910;2022-09-09T08:29:34;10.18;;;2.30;;
55728;SDS011;41633;39.720;2.910;2022-09-09T08:32:02;9.30;;;1.77;;
55728;SDS011;41633;39.720;2.910;2022-09-09T08:34:29;8.40;;;1.92;;
55728;SDS011;41633;39.720;2.910;2022-09-09T08:36:56;9.30;;;2.10;;
55728;SDS011;41633;39.720;2.910;2022-09-09T08:39:22;7.53;;;1.83;;
55728;SDS011;41633;39.720;2.910;2022-09-09T08:51:57;7.90;;;1.58;;
55728;SDS011;41633;39.720;2.910;2022-09-09T08:54:24;7.57;;;1.60;;
55728;SDS011;41633;39.720;2.910;2022-09-09T08:56:53;6.85;;;1.40;;
55728;SDS011;41633;39.720;2.910;2022-09-09T08:59:21;7.35;;;1.60;;
55728;SDS011;41633;39.720;2.910;2022-09-09T09:01:57;10.77;;;1.90;;
55728;SDS011;41633;39.720;2.910;2022-09-09T09:09:30;6.32;;;1.60;;
55728;SDS011;41633;39.720;2.910;2022-09-09T09:11:59;6.90;;;1.60;;
55728;SDS011;41633;39.720;2.910;2022-09-09T09:14:29;7.57;;;1.35;;
55728;SDS011;41633;39.720;2.910;2022-09-09T09:17:15;6.88;;;1.50;;
55728;SDS011;41633;39.720;2.910;2022-09-09T09:19:42;8.30;;;1.65;;
55728;SDS011;41633;39.720;2.910;2022-09-09T09:22:22;8.30;;;1.58;;
55728;SDS011;41633;39.720;2.910;2022-09-09T09:27:48;8.18;;;1.63;;
55728;SDS011;41633;39.720;2.910;2022-09-09T09:30:17;9.50;;;1.60;;
55728;SDS011;41633;39.720;2.910;2022-09-09T09:32:49;8.00;;;1.50;;
55728;SDS011;41633;39.720;2.910;2022-09-09T09:35:16;9.10;;;1.58;;
55728;SDS011;41633;39.720;2.910;2022-09-09T09:37:45;10.15;;;1.90;;
55728;SDS011;41633;39.720;2.910;2022-09-09T09:46:39;10.32;;;1.90;;
55728;SDS011;41633;39.720;2.910;2022-09-09T09:49:12;9.20;;;1.88;;
55728;SDS011;41633;39.720;2.910;2022-09-09T09:54:48;6.75;;;1.23;;
55728;SDS011;41633;39.720;2.910;2022-09-09T09:57:15;4.75;;;1.20;;
55728;SDS011;41633;39.720;2.910;2022-09-09T09:59:45;4.45;;;1.10;;
55728;SDS011;41633;39.720;2.910;2022-09-09T10:02:21;5.63;;;1.15;;
55728;SDS011;41633;39.720;2.910;2022-09-09T10:05:35;6.35;;;1.15;;
55728;SDS011;41633;39.720;2.910;2022-09-09T10:07:36;7.85;;;1.15;;
55728;SDS011;41633;39.720;2.910;2022-09-09T10:10:04;7.00;;;1.25;;
55728;SDS011;41633;39.720;2.910;2022-09-09T10:20:34;5.32;;;1.30;;
55728;SDS011;41633;39.720;2.910;2022-09-09T10:25:34;6.35;;;1.40;;
55728;SDS011;41633;39.720;2.910;2022-09-09T10:33:22;5.80;;;1.10;;
55728;SDS011;41633;39.720;2.910;2022-09-09T10:45:55;6.07;;;1.10;;
55728;SDS011;41633;39.720;2.910;2022-09-09T10:56:09;9.27;;;2.88;;
55728;SDS011;41633;39.720;2.910;2022-09-09T10:58:39;10.40;;;2.47;;
55728;SDS011;41633;39.720;2.910;2022-09-09T11:01:28;6.97;;;1.63;;
55728;SDS011;41633;39.720;2.910;2022-09-09T11:03:57;6.55;;;1.48;;
55728;SDS011;41633;39.720;2.910;2022-09-09T11:06:28;6.70;;;1.60;;
55728;SDS011;41633;39.720;2.910;2022-09-09T11:08:57;7.95;;;1.33;;
55728;SDS011;41633;39.720;2.910;2022-09-09T11:11:28;9.13;;;1.65;;
55728;SDS011;41633;39.720;2.910;2022-09-09T11:13:57;6.38;;;1.55;;
55728;SDS011;41633;39.720;2.910;2022-09-09T11:16:36;9.77;;;2.03;;
55728;SDS011;41633;39.720;2.910;2022-09-09T11:21:37;9.30;;;1.30;;
55728;SDS011;41633;39.720;2.910;2022-09-09T11:24:09;7.88;;;1.83;;
55728;SDS011;41633;39.720;2.910;2022-09-09T11:26:55;6.18;;;1.33;;
55728;SDS011;41633;39.720;2.910;2022-09-09T11:40:17;7.70;;;1.95;;
55728;SDS011;41633;39.720;2.910;2022-09-09T11:42:45;8.15;;;1.92;;
55728;SDS011;41633;39.720;2.910;2022-09-09T11:45:24;5.40;;;1.45;;
55728;SDS011;41633;39.720;2.910;2022-09-09T11:47:54;7.35;;;1.45;;
55728;SDS011;41633;39.720;2.910;2022-09-09T11:52:48;7.65;;;1.40;;
55728;SDS011;41633;39.720;2.910;2022-09-09T11:55:25;9.07;;;1.60;;
55728;SDS011;41633;39.720;2.910;2022-09-09T11:58:01;6.75;;;1.45;;
55728;SDS011;41633;39.720;2.910;2022-09-09T12:00:48;8.43;;;2.00;;
55728;SDS011;41633;39.720;2.910;2022-09-09T12:03:35;6.88;;;1.75;;
55728;SDS011;41633;39.720;2.910;2022-09-09T12:08:50;7.10;;;1.60;;
55728;SDS011;41633;39.720;2.910;2022-09-09T12:11:28;8.57;;;1.60;;
55728;SDS011;41633;39.720;2.910;2022-09-09T12:13:55;7.68;;;1.40;;
55728;SDS011;41633;39.720;2.910;2022-09-09T12:21:39;6.20;;;1.50;;
55728;SDS011;41633;39.720;2.910;2022-09-09T12:24:11;6.70;;;1.52;;
55728;SDS011;41633;39.720;2.910;2022-09-09T12:34:16;6.80;;;1.30;;
55728;SDS011;41633;39.720;2.910;2022-09-09T12:36:43;5.95;;;1.35;;
55728;SDS011;41633;39.720;2.910;2022-09-09T12:39:19;7.68;;;1.40;;
55728;SDS011;41633;39.720;2.910;2022-09-09T12:41:52;7.07;;;1.40;;
55728;SDS011;41633;39.720;2.910;2022-09-09T12:44:25;6.90;;;1.50;;
55728;SDS011;41633;39.720;2.910;2022-09-09T12:46:55;5.30;;;1.25;;
55728;SDS011;41633;39.720;2.910;2022-09-09T12:52:00;6.22;;;1.15;;
55728;SDS011;41633;39.720;2.910;2022-09-09T12:54:27;6.00;;;1.20;;
55728;SDS011;41633;39.720;2.910;2022-09-09T12:56:53;5.18;;;1.17;;
55728;SDS011;41633;39.720;2.910;2022-09-09T12:59:26;6.45;;;1.42;;
55728;SDS011;41633;39.720;2.910;2022-09-09T13:01:56;8.20;;;1.42;;
55728;SDS011;41633;39.720;2.910;2022-09-09T13:04:22;6.95;;;1.50;;
55728;SDS011;41633;39.720;2.910;2022-09-09T13:06:49;6.60;;;1.45;;
55728;SDS011;41633;39.720;2.910;2022-09-09T13:09:17;8.40;;;1.50;;
55728;SDS011;41633;39.720;2.910;2022-09-09T13:11:52;6.53;;;1.40;;
55728;SDS011;41633;39.720;2.910;2022-09-09T13:14:39;7.00;;;1.50;;
55728;SDS011;41633;39.720;2.910;2022-09-09T13:17:15;7.07;;;1.70;;
55728;SDS011;41633;39.720;2.910;2022-09-09T13:19:43;9.85;;;1.77;;
55728;SDS011;41633;39.720;2.910;2022-09-09T13:22:12;6.93;;;1.80;;
55728;SDS011;41633;39.720;2.910;2022-09-09T13:24:38;9.52;;;1.73;;
55728;SDS011;41633;39.720;2.910;2022-09-09T13:27:18;7.95;;;1.80;;
55728;SDS011;41633;39.720;2.910;2022-09-09T13:29:52;7.90;;;1.50;;
55728;SDS011;41633;39.720;2.910;2022-09-09T13:32:22;6.38;;;1.60;;
55728;SDS011;41633;39.720;2.910;2022-09-09T13:35:22;6.53;;;1.52;;
55728;SDS011;41633;39.720;2.910;2022-09-09T13:37:38;9.50;;;1.40;;
55728;SDS011;41633;39.720;2.910;2022-09-09T13:40:06;12.10;;;1.60;;
55728;SDS011;41633;39.720;2.910;2022-09-09T13:42:33;8.15;;;1.52;;
55728;SDS011;41633;39.720;2.910;2022-09-09T13:45:00;4.63;;;1.25;;
55728;SDS011;41633;39.720;2.910;2022-09-09T13:47:33;6.20;;;1.45;;
55728;SDS011;41633;39.720;2.910;2022-09-09T13:52:45;5.88;;;1.52;;
55728;SDS011;41633;39.720;2.910;2022-09-09T13:55:12;8.50;;;1.52;;
55728;SDS011;41633;39.720;2.910;2022-09-09T13:57:38;9.40;;;1.67;;
55728;SDS011;41633;39.720;2.910;2022-09-09T14:00:05;7.05;;;1.70;;
55728;SDS011;41633;39.720;2.910;2022-09-09T14:02:33;7.00;;;1.60;;
55728;SDS011;41633;39.720;2.910;2022-09-09T14:05:00;9.43;;;1.73;;
55728;SDS011;41633;39.720;2.910;2022-09-09T14:07:26;4.43;;;1.10;;
55728;SDS011;41633;39.720;2.910;2022-09-09T14:09:53;7.93;;;1.80;;
55728;SDS011;41633;39.720;2.910;2022-09-09T14:12:19;6.07;;;1.48;;
55728;SDS011;41633;39.720;2.910;2022-09-09T14:14:45;6.45;;;1.42;;
55728;SDS011;41633;39.720;2.910;2022-09-09T14:17:11;7.68;;;1.38;;
55728;SDS011;41633;39.720;2.910;2022-09-09T14:19:37;8.73;;;1.80;;
55728;SDS011;41633;39.720;2.910;2022-09-09T14:22:03;7.18;;;1.48;;
55728;SDS011;41633;39.720;2.910;2022-09-09T14:24:30;6.70;;;2.00;;
55728;SDS011;41633;39.720;2.910;2022-09-09T14:26:56;7.47;;;1.40;;
55728;SDS011;41633;39.720;2.910;2022-09-09T14:29:22;7.20;;;1.48;;
55728;SDS011;41633;39.720;2.910;2022-09-09T14:31:50;6.97;;;1.60;;
55728;SDS011;41633;39.720;2.910;2022-09-09T14:34:16;11.52;;;1.80;;
55728;SDS011;41633;39.720;2.910;2022-09-09T14:36:43;11.57;;;1.98;;
55728;SDS011;41633;39.720;2.910;2022-09-09T14:39:10;7.28;;;1.90;;
55728;SDS011;41633;39.720;2.910;2022-09-09T14:41:36;9.23;;;1.90;;
55728;SDS011;41633;39.720;2.910;2022-09-09T14:44:02;8.70;;;1.70;;
55728;SDS011;41633;39.720;2.910;2022-09-09T14:46:29;8.10;;;1.73;;
55728;SDS011;41633;39.720;2.910;2022-09-09T14:48:56;9.40;;;1.75;;
55728;SDS011;41633;39.720;2.910;2022-09-09T14:51:22;6.80;;;1.70;;
55728;SDS011;41633;39.720;2.910;2022-09-09T14:53:52;6.97;;;1.50;;
55728;SDS011;41633;39.720;2.910;2022-09-09T14:56:19;8.30;;;1.70;;
55728;SDS011;41633;39.720;2.910;2022-09-09T14:58:47;10.35;;;1.40;;
55728;SDS011;41633;39.720;2.910;2022-09-09T15:01:14;9.10;;;1.63;;
55728;SDS011;41633;39.720;2.910;2022-09-09T15:03:41;7.35;;;1.45;;
55728;SDS011;41633;39.720;2.910;2022-09-09T15:06:09;6.75;;;1.38;;
55728;SDS011;41633;39.720;2.910;2022-09-09T15:08:36;8.05;;;1.50;;
55728;SDS011;41633;39.720;2.910;2022-09-09T15:11:02;6.43;;;1.58;;
55728;SDS011;41633;39.720;2.910;2022-09-09T15:13:29;6.28;;;1.45;;
55728;SDS011;41633;39.720;2.910;2022-09-09T15:15:55;6.95;;;1.50;;
55728;SDS011;41633;39.720;2.910;2022-09-09T15:18:23;9.85;;;1.75;;
55728;SDS011;41633;39.720;2.910;2022-09-09T15:20:49;8.77;;;1.73;;
55728;SDS011;41633;39.720;2.910;2022-09-09T15:23:16;5.75;;;1.50;;
55728;SDS011;41633;39.720;2.910;2022-09-09T15:25:52;7.78;;;2.00;;
55728;SDS011;41633;39.720;2.910;2022-09-09T15:28:18;6.60;;;1.73;;
55728;SDS011;41633;39.720;2.910;2022-09-09T15:30:47;8.25;;;2.25;;
55728;SDS011;41633;39.720;2.910;2022-09-09T15:33:13;6.55;;;1.77;;
55728;SDS011;41633;39.720;2.910;2022-09-09T15:35:39;10.77;;;2.13;;
55728;SDS011;41633;39.720;2.910;2022-09-09T15:38:05;7.72;;;1.90;;
55728;SDS011;41633;39.720;2.910;2022-09-09T15:40:31;10.05;;;2.65;;
55728;SDS011;41633;39.720;2.910;2022-09-09T15:42:58;11.13;;;1.98;;
55728;SDS011;41633;39.720;2.910;2022-09-09T15:45:24;8.32;;;2.33;;
55728;SDS011;41633;39.720;2.910;2022-09-09T15:47:51;8.85;;;3.00;;
55728;SDS011;41633;39.720;2.910;2022-09-09T15:50:17;9.52;;;2.70;;
55728;SDS011;41633;39.720;2.910;2022-09-09T15:52:44;7.85;;;2.20;;
55728;SDS011;41633;39.720;2.910;2022-09-09T15:55:10;8.35;;;2.22;;
55728;SDS011;41633;39.720;2.910;2022-09-09T15:57:36;8.73;;;2.35;;
55728;SDS011;41633;39.720;2.910;2022-09-09T16:00:05;10.23;;;2.30;;
55728;SDS011;41633;39.720;2.910;2022-09-09T16:02:32;9.93;;;1.80;;
55728;SDS011;41633;39.720;2.910;2022-09-09T16:04:58;6.15;;;1.70;;
55728;SDS011;41633;39.720;2.910;2022-09-09T16:07:26;8.13;;;2.65;;
55728;SDS011;41633;39.720;2.910;2022-09-09T16:09:52;9.40;;;1.70;;
55728;SDS011;41633;39.720;2.910;2022-09-09T16:12:18;6.22;;;1.80;;
55728;SDS011;41633;39.720;2.910;2022-09-09T16:14:44;9.55;;;2.20;;
55728;SDS011;41633;39.720;2.910;2022-09-09T16:17:10;8.05;;;2.20;;
55728;SDS011;41633;39.720;2.910;2022-09-09T16:19:36;6.60;;;1.70;;
55728;SDS011;41633;39.720;2.910;2022-09-09T16:22:03;6.97;;;1.85;;
55728;SDS011;41633;39.720;2.910;2022-09-09T16:24:29;8.50;;;1.88;;
55728;SDS011;41633;39.720;2.910;2022-09-09T16:26:55;7.57;;;2.10;;
55728;SDS011;41633;39.720;2.910;2022-09-09T16:29:22;7.05;;;2.10;;
55728;SDS011;41633;39.720;2.910;2022-09-09T16:31:49;7.07;;;1.80;;
55728;SDS011;41633;39.720;2.910;2022-09-09T16:34:16;9.82;;;1.58;;
55728;SDS011;41633;39.720;2.910;2022-09-09T16:36:43;6.65;;;1.90;;
55728;SDS011;41633;39.720;2.910;2022-09-09T16:39:10;8.52;;;1.85;;
55728;SDS011;41633;39.720;2.910;2022-09-09T16:41:37;7.68;;;2.00;;
55728;SDS011;41633;39.720;2.910;2022-09-09T16:44:04;5.85;;;1.50;;
55728;SDS011;41633;39.720;2.910;2022-09-09T16:46:32;7.55;;;1.83;;
55728;SDS011;41633;39.720;2.910;2022-09-09T16:48:59;9.90;;;1.75;;
55728;SDS011;41633;39.720;2.910;2022-09-09T16:51:30;9.15;;;2.08;;
55728;SDS011;41633;39.720;2.910;2022-09-09T16:54:00;8.02;;;1.90;;
55728;SDS011;41633;39.720;2.910;2022-09-09T16:56:29;8.85;;;1.35;;
55728;SDS011;41633;39.720;2.910;2022-09-09T16:59:17;5.93;;;1.50;;